sensor_id;sensor_type;location;lat;lon;timestamp;P1;durP1;ratioP1;P2;durP2;ratioP2
34373;SDS011;20637;55.770;37.592;2022-09-03T00:00:14;1.92;;;1.00;;
34373;SDS011;20637;55.770;37.592;2022-09-03T00:02:49;2.03;;;0.73;;
34373;SDS011;20637;55.770;37.592;2022-09-03T00:08:14;1.80;;;0.80;;
34373;SDS011;20637;55.770;37.592;2022-09-03T00:13:21;0.98;;;0.70;;
34373;SDS011;20637;55.770;37.592;2022-09-03T00:18:19;1.63;;;1.00;;
34373;SDS011;20637;55.770;37.592;2022-09-03T00:20:52;1.77;;;0.90;;
34373;SDS011;20637;55.770;37.592;2022-09-03T00:23:26;1.48;;;1.00;;
34373;SDS011;20637;55.770;37.592;2022-09-03T00:26:13;1.50;;;1.00;;
34373;SDS011;20637;55.770;37.592;2022-09-03T00:28:49;1.65;;;1.00;;
34373;SDS011;20637;55.770;37.592;2022-09-03T00:31:23;1.80;;;0.60;;
34373;SDS011;20637;55.770;37.592;2022-09-03T00:34:04;1.40;;;0.88;;
34373;SDS011;20637;55.770;37.592;2022-09-03T00:36:40;1.52;;;1.00;;
34373;SDS011;20637;55.770;37.592;2022-09-03T00:39:08;2.28;;;1.08;;
34373;SDS011;20637;55.770;37.592;2022-09-03T00:41:43;1.80;;;0.80;;
34373;SDS011;20637;55.770;37.592;2022-09-03T00:47:34;1.60;;;0.80;;
34373;SDS011;20637;55.770;37.592;2022-09-03T00:56:08;0.90;;;0.77;;
34373;SDS011;20637;55.770;37.592;2022-09-03T01:12:21;1.55;;;1.00;;
34373;SDS011;20637;55.770;37.592;2022-09-03T01:20:28;1.05;;;0.95;;
34373;SDS011;20637;55.770;37.592;2022-09-03T01:23:27;1.08;;;0.98;;
34373;SDS011;20637;55.770;37.592;2022-09-03T01:26:26;1.17;;;1.02;;
34373;SDS011;20637;55.770;37.592;2022-09-03T01:45:35;0.90;;;0.80;;
34373;SDS011;20637;55.770;37.592;2022-09-03T01:48:18;1.98;;;0.98;;
34373;SDS011;20637;55.770;37.592;2022-09-03T01:50:57;1.88;;;1.23;;
34373;SDS011;20637;55.770;37.592;2022-09-03T02:02:20;1.98;;;0.90;;
34373;SDS011;20637;55.770;37.592;2022-09-03T02:05:08;2.85;;;1.02;;
34373;SDS011;20637;55.770;37.592;2022-09-03T02:07:41;2.65;;;1.40;;
34373;SDS011;20637;55.770;37.592;2022-09-03T02:10:39;1.17;;;0.98;;
34373;SDS011;20637;55.770;37.592;2022-09-03T02:13:17;1.25;;;1.00;;
34373;SDS011;20637;55.770;37.592;2022-09-03T02:15:46;1.63;;;1.00;;
34373;SDS011;20637;55.770;37.592;2022-09-03T02:18:35;2.10;;;0.90;;
34373;SDS011;20637;55.770;37.592;2022-09-03T02:21:06;1.60;;;1.20;;
34373;SDS011;20637;55.770;37.592;2022-09-03T02:23:37;4.15;;;1.23;;
34373;SDS011;20637;55.770;37.592;2022-09-03T02:26:04;2.33;;;1.02;;
34373;SDS011;20637;55.770;37.592;2022-09-03T02:28:32;3.63;;;1.10;;
34373;SDS011;20637;55.770;37.592;2022-09-03T02:30:58;0.95;;;0.90;;
34373;SDS011;20637;55.770;37.592;2022-09-03T02:33:24;1.80;;;1.17;;
34373;SDS011;20637;55.770;37.592;2022-09-03T02:35:50;1.65;;;1.10;;
34373;SDS011;20637;55.770;37.592;2022-09-03T02:38:19;2.38;;;1.10;;
34373;SDS011;20637;55.770;37.592;2022-09-03T02:40:47;2.60;;;1.13;;
34373;SDS011;20637;55.770;37.592;2022-09-03T02:43:17;1.50;;;1.10;;
34373;SDS011;20637;55.770;37.592;2022-09-03T02:45:56;1.60;;;0.93;;
34373;SDS011;20637;55.770;37.592;2022-09-03T02:48:25;2.33;;;1.20;;
34373;SDS011;20637;55.770;37.592;2022-09-03T02:50:52;1.75;;;0.88;;
34373;SDS011;20637;55.770;37.592;2022-09-03T02:53:17;2.22;;;1.10;;
34373;SDS011;20637;55.770;37.592;2022-09-03T02:55:44;1.60;;;1.15;;
34373;SDS011;20637;55.770;37.592;2022-09-03T02:58:10;3.58;;;1.20;;
34373;SDS011;20637;55.770;37.592;2022-09-03T03:00:36;1.50;;;1.08;;
34373;SDS011;20637;55.770;37.592;2022-09-03T03:03:02;1.77;;;1.15;;
34373;SDS011;20637;55.770;37.592;2022-09-03T03:05:31;1.73;;;1.45;;
34373;SDS011;20637;55.770;37.592;2022-09-03T03:08:08;2.40;;;1.23;;
34373;SDS011;20637;55.770;37.592;2022-09-03T03:10:34;2.22;;;1.33;;
34373;SDS011;20637;55.770;37.592;2022-09-03T03:13:00;1.80;;;1.10;;
34373;SDS011;20637;55.770;37.592;2022-09-03T03:15:26;3.00;;;1.45;;
34373;SDS011;20637;55.770;37.592;2022-09-03T03:17:54;3.70;;;1.35;;
34373;SDS011;20637;55.770;37.592;2022-09-03T03:20:21;3.08;;;1.50;;
34373;SDS011;20637;55.770;37.592;2022-09-03T03:22:47;2.22;;;1.40;;
34373;SDS011;20637;55.770;37.592;2022-09-03T03:25:12;2.28;;;1.40;;
34373;SDS011;20637;55.770;37.592;2022-09-03T03:27:38;1.67;;;1.10;;
34373;SDS011;20637;55.770;37.592;2022-09-03T03:30:07;1.30;;;1.13;;
34373;SDS011;20637;55.770;37.592;2022-09-03T03:32:34;2.90;;;2.13;;
34373;SDS011;20637;55.770;37.592;2022-09-03T03:35:03;1.40;;;1.10;;
34373;SDS011;20637;55.770;37.592;2022-09-03T03:37:30;1.27;;;1.17;;
34373;SDS011;20637;55.770;37.592;2022-09-03T03:39:56;1.27;;;1.17;;
34373;SDS011;20637;55.770;37.592;2022-09-03T03:42:22;1.40;;;1.30;;
34373;SDS011;20637;55.770;37.592;2022-09-03T03:44:48;1.40;;;1.25;;
34373;SDS011;20637;55.770;37.592;2022-09-03T03:47:13;1.83;;;1.67;;
34373;SDS011;20637;55.770;37.592;2022-09-03T03:49:41;1.80;;;1.48;;
34373;SDS011;20637;55.770;37.592;2022-09-03T03:52:07;2.03;;;1.50;;
34373;SDS011;20637;55.770;37.592;2022-09-03T03:54:33;2.38;;;1.30;;
34373;SDS011;20637;55.770;37.592;2022-09-03T03:56:59;2.10;;;1.67;;
34373;SDS011;20637;55.770;37.592;2022-09-03T03:59:25;1.50;;;1.33;;
34373;SDS011;20637;55.770;37.592;2022-09-03T04:01:50;1.55;;;1.45;;
34373;SDS011;20637;55.770;37.592;2022-09-03T04:04:19;2.60;;;1.40;;
34373;SDS011;20637;55.770;37.592;2022-09-03T04:06:45;3.25;;;1.50;;
34373;SDS011;20637;55.770;37.592;2022-09-03T04:09:10;3.22;;;1.70;;
34373;SDS011;20637;55.770;37.592;2022-09-03T04:11:36;2.47;;;1.92;;
34373;SDS011;20637;55.770;37.592;2022-09-03T04:14:01;1.55;;;1.40;;
34373;SDS011;20637;55.770;37.592;2022-09-03T04:16:27;2.05;;;1.48;;
34373;SDS011;20637;55.770;37.592;2022-09-03T04:18:53;2.40;;;1.90;;
34373;SDS011;20637;55.770;37.592;2022-09-03T04:21:29;1.88;;;1.77;;
34373;SDS011;20637;55.770;37.592;2022-09-03T04:23:56;2.60;;;1.70;;
34373;SDS011;20637;55.770;37.592;2022-09-03T04:26:28;1.48;;;1.38;;
34373;SDS011;20637;55.770;37.592;2022-09-03T04:28:56;2.83;;;1.60;;
34373;SDS011;20637;55.770;37.592;2022-09-03T04:31:22;2.03;;;1.80;;
34373;SDS011;20637;55.770;37.592;2022-09-03T04:33:48;2.28;;;1.75;;
34373;SDS011;20637;55.770;37.592;2022-09-03T04:36:14;3.03;;;2.17;;
34373;SDS011;20637;55.770;37.592;2022-09-03T04:38:42;2.60;;;2.30;;
34373;SDS011;20637;55.770;37.592;2022-09-03T04:41:10;4.55;;;2.17;;
34373;SDS011;20637;55.770;37.592;2022-09-03T04:43:37;2.53;;;2.20;;
34373;SDS011;20637;55.770;37.592;2022-09-03T04:46:03;2.38;;;2.15;;
34373;SDS011;20637;55.770;37.592;2022-09-03T04:48:31;3.15;;;2.85;;
34373;SDS011;20637;55.770;37.592;2022-09-03T04:51:04;2.42;;;2.20;;
34373;SDS011;20637;55.770;37.592;2022-09-03T04:53:41;3.60;;;2.88;;
34373;SDS011;20637;55.770;37.592;2022-09-03T04:56:26;3.40;;;2.63;;
34373;SDS011;20637;55.770;37.592;2022-09-03T04:58:55;2.90;;;2.70;;
34373;SDS011;20637;55.770;37.592;2022-09-03T05:01:22;4.88;;;3.10;;
34373;SDS011;20637;55.770;37.592;2022-09-03T05:03:50;3.00;;;2.70;;
34373;SDS011;20637;55.770;37.592;2022-09-03T05:06:19;2.40;;;2.20;;
34373;SDS011;20637;55.770;37.592;2022-09-03T05:08:48;2.80;;;2.35;;
34373;SDS011;20637;55.770;37.592;2022-09-03T05:11:18;2.47;;;2.28;;
34373;SDS011;20637;55.770;37.592;2022-09-03T05:13:48;4.57;;;2.15;;
34373;SDS011;20637;55.770;37.592;2022-09-03T05:16:14;1.95;;;1.85;;
34373;SDS011;20637;55.770;37.592;2022-09-03T05:18:41;2.00;;;1.80;;
34373;SDS011;20637;55.770;37.592;2022-09-03T05:21:08;3.70;;;1.65;;
34373;SDS011;20637;55.770;37.592;2022-09-03T05:23:36;2.60;;;2.40;;
34373;SDS011;20637;55.770;37.592;2022-09-03T05:26:04;2.80;;;2.60;;
34373;SDS011;20637;55.770;37.592;2022-09-03T05:28:33;2.40;;;1.98;;
34373;SDS011;20637;55.770;37.592;2022-09-03T05:31:04;2.83;;;2.50;;
34373;SDS011;20637;55.770;37.592;2022-09-03T05:33:33;2.30;;;2.10;;
34373;SDS011;20637;55.770;37.592;2022-09-03T05:36:06;2.10;;;1.90;;
34373;SDS011;20637;55.770;37.592;2022-09-03T05:38:33;3.08;;;2.20;;
34373;SDS011;20637;55.770;37.592;2022-09-03T05:41:00;2.17;;;1.98;;
34373;SDS011;20637;55.770;37.592;2022-09-03T05:43:30;4.07;;;1.98;;
34373;SDS011;20637;55.770;37.592;2022-09-03T05:45:57;2.00;;;1.90;;
34373;SDS011;20637;55.770;37.592;2022-09-03T05:48:30;3.28;;;1.90;;
34373;SDS011;20637;55.770;37.592;2022-09-03T05:51:08;3.38;;;1.98;;
34373;SDS011;20637;55.770;37.592;2022-09-03T05:53:45;3.92;;;2.45;;
34373;SDS011;20637;55.770;37.592;2022-09-03T05:56:16;1.90;;;1.80;;
34373;SDS011;20637;55.770;37.592;2022-09-03T05:58:48;1.80;;;1.67;;
34373;SDS011;20637;55.770;37.592;2022-09-03T06:01:25;2.25;;;1.60;;
34373;SDS011;20637;55.770;37.592;2022-09-03T06:04:03;2.17;;;1.60;;
34373;SDS011;20637;55.770;37.592;2022-09-03T06:06:30;2.45;;;2.25;;
34373;SDS011;20637;55.770;37.592;2022-09-03T06:08:57;1.90;;;1.60;;
34373;SDS011;20637;55.770;37.592;2022-09-03T06:11:25;3.95;;;2.47;;
34373;SDS011;20637;55.770;37.592;2022-09-03T06:13:54;1.80;;;1.70;;
34373;SDS011;20637;55.770;37.592;2022-09-03T06:16:20;3.78;;;1.90;;
34373;SDS011;20637;55.770;37.592;2022-09-03T06:18:47;1.65;;;1.30;;
34373;SDS011;20637;55.770;37.592;2022-09-03T06:21:13;1.75;;;1.60;;
34373;SDS011;20637;55.770;37.592;2022-09-03T06:23:42;1.88;;;1.60;;
34373;SDS011;20637;55.770;37.592;2022-09-03T06:26:09;2.03;;;1.33;;
34373;SDS011;20637;55.770;37.592;2022-09-03T06:28:39;2.40;;;1.48;;
34373;SDS011;20637;55.770;37.592;2022-09-03T06:31:08;3.30;;;1.52;;
34373;SDS011;20637;55.770;37.592;2022-09-03T06:33:39;3.00;;;1.77;;
34373;SDS011;20637;55.770;37.592;2022-09-03T06:36:08;2.20;;;1.42;;
34373;SDS011;20637;55.770;37.592;2022-09-03T06:38:44;2.50;;;1.20;;
34373;SDS011;20637;55.770;37.592;2022-09-03T06:43:38;2.53;;;1.35;;
34373;SDS011;20637;55.770;37.592;2022-09-03T06:46:07;2.60;;;1.10;;
34373;SDS011;20637;55.770;37.592;2022-09-03T06:51:05;2.67;;;1.50;;
34373;SDS011;20637;55.770;37.592;2022-09-03T06:53:34;2.88;;;1.48;;
34373;SDS011;20637;55.770;37.592;2022-09-03T06:56:04;1.98;;;1.00;;
34373;SDS011;20637;55.770;37.592;2022-09-03T06:58:32;1.38;;;1.20;;
34373;SDS011;20637;55.770;37.592;2022-09-03T07:01:07;2.30;;;1.15;;
34373;SDS011;20637;55.770;37.592;2022-09-03T07:03:37;1.75;;;0.95;;
34373;SDS011;20637;55.770;37.592;2022-09-03T07:06:11;2.42;;;1.10;;
34373;SDS011;20637;55.770;37.592;2022-09-03T07:08:39;1.70;;;0.90;;
34373;SDS011;20637;55.770;37.592;2022-09-03T07:11:07;1.33;;;1.08;;
34373;SDS011;20637;55.770;37.592;2022-09-03T07:13:35;2.15;;;1.08;;
34373;SDS011;20637;55.770;37.592;2022-09-03T07:16:08;1.30;;;0.93;;
34373;SDS011;20637;55.770;37.592;2022-09-03T07:18:35;1.75;;;0.90;;
34373;SDS011;20637;55.770;37.592;2022-09-03T07:21:03;2.55;;;0.95;;
34373;SDS011;20637;55.770;37.592;2022-09-03T07:23:33;1.23;;;0.80;;
34373;SDS011;20637;55.770;37.592;2022-09-03T07:26:00;1.15;;;0.73;;
34373;SDS011;20637;55.770;37.592;2022-09-03T07:28:29;0.77;;;0.65;;
34373;SDS011;20637;55.770;37.592;2022-09-03T07:31:01;3.65;;;1.38;;
34373;SDS011;20637;55.770;37.592;2022-09-03T07:33:29;1.67;;;0.80;;
34373;SDS011;20637;55.770;37.592;2022-09-03T07:35:55;3.08;;;1.10;;
34373;SDS011;20637;55.770;37.592;2022-09-03T07:38:26;3.80;;;0.77;;
34373;SDS011;20637;55.770;37.592;2022-09-03T07:40:59;2.60;;;0.80;;
34373;SDS011;20637;55.770;37.592;2022-09-03T07:43:31;1.83;;;0.90;;
34373;SDS011;20637;55.770;37.592;2022-09-03T07:45:59;2.90;;;0.85;;
34373;SDS011;20637;55.770;37.592;2022-09-03T07:48:25;1.15;;;0.80;;
34373;SDS011;20637;55.770;37.592;2022-09-03T07:50:51;1.67;;;1.17;;
34373;SDS011;20637;55.770;37.592;2022-09-03T07:53:17;0.70;;;0.70;;
34373;SDS011;20637;55.770;37.592;2022-09-03T07:55:46;1.52;;;1.13;;
34373;SDS011;20637;55.770;37.592;2022-09-03T07:58:13;0.90;;;0.75;;
34373;SDS011;20637;55.770;37.592;2022-09-03T08:00:39;1.10;;;0.75;;
34373;SDS011;20637;55.770;37.592;2022-09-03T08:03:05;1.10;;;0.80;;
34373;SDS011;20637;55.770;37.592;2022-09-03T08:05:33;2.00;;;0.90;;
34373;SDS011;20637;55.770;37.592;2022-09-03T08:08:01;1.63;;;0.80;;
34373;SDS011;20637;55.770;37.592;2022-09-03T08:10:28;2.45;;;0.95;;
34373;SDS011;20637;55.770;37.592;2022-09-03T08:12:56;1.60;;;1.20;;
34373;SDS011;20637;55.770;37.592;2022-09-03T08:15:23;1.60;;;0.88;;
34373;SDS011;20637;55.770;37.592;2022-09-03T08:17:50;1.58;;;1.42;;
34373;SDS011;20637;55.770;37.592;2022-09-03T08:20:16;1.13;;;0.90;;
34373;SDS011;20637;55.770;37.592;2022-09-03T08:22:43;1.77;;;1.10;;
34373;SDS011;20637;55.770;37.592;2022-09-03T08:25:08;2.38;;;1.05;;
34373;SDS011;20637;55.770;37.592;2022-09-03T08:27:34;2.00;;;1.00;;
34373;SDS011;20637;55.770;37.592;2022-09-03T08:30:00;1.95;;;0.90;;
34373;SDS011;20637;55.770;37.592;2022-09-03T08:32:25;1.75;;;1.00;;
34373;SDS011;20637;55.770;37.592;2022-09-03T08:34:51;1.73;;;0.88;;
34373;SDS011;20637;55.770;37.592;2022-09-03T08:37:17;2.13;;;0.75;;
34373;SDS011;20637;55.770;37.592;2022-09-03T08:39:43;1.17;;;0.80;;
34373;SDS011;20637;55.770;37.592;2022-09-03T08:42:24;2.20;;;0.90;;
34373;SDS011;20637;55.770;37.592;2022-09-03T08:44:58;2.72;;;0.60;;
34373;SDS011;20637;55.770;37.592;2022-09-03T08:47:29;6.40;;;2.13;;
34373;SDS011;20637;55.770;37.592;2022-09-03T08:50:24;2.25;;;0.60;;
34373;SDS011;20637;55.770;37.592;2022-09-03T08:53:01;1.70;;;0.50;;
34373;SDS011;20637;55.770;37.592;2022-09-03T08:55:52;1.40;;;1.07;;
34373;SDS011;20637;55.770;37.592;2022-09-03T08:58:22;3.33;;;1.10;;
34373;SDS011;20637;55.770;37.592;2022-09-03T09:09:23;1.23;;;0.85;;
34373;SDS011;20637;55.770;37.592;2022-09-03T09:12:15;1.92;;;0.68;;
34373;SDS011;20637;55.770;37.592;2022-09-03T09:18:06;0.88;;;0.50;;
34373;SDS011;20637;55.770;37.592;2022-09-03T09:21:16;1.20;;;0.63;;
34373;SDS011;20637;55.770;37.592;2022-09-03T09:23:52;0.55;;;0.50;;
34373;SDS011;20637;55.770;37.592;2022-09-03T09:26:23;0.52;;;0.50;;
34373;SDS011;20637;55.770;37.592;2022-09-03T09:28:52;1.02;;;0.60;;
34373;SDS011;20637;55.770;37.592;2022-09-03T09:31:22;0.60;;;0.45;;
34373;SDS011;20637;55.770;37.592;2022-09-03T09:33:48;1.50;;;0.50;;
34373;SDS011;20637;55.770;37.592;2022-09-03T09:36:16;0.93;;;0.50;;
34373;SDS011;20637;55.770;37.592;2022-09-03T09:38:44;1.65;;;0.50;;
34373;SDS011;20637;55.770;37.592;2022-09-03T09:41:15;3.72;;;1.00;;
34373;SDS011;20637;55.770;37.592;2022-09-03T09:43:47;1.50;;;0.40;;
34373;SDS011;20637;55.770;37.592;2022-09-03T09:46:31;0.77;;;0.50;;
34373;SDS011;20637;55.770;37.592;2022-09-03T09:49:07;1.70;;;0.70;;
34373;SDS011;20637;55.770;37.592;2022-09-03T09:51:59;2.35;;;0.50;;
34373;SDS011;20637;55.770;37.592;2022-09-03T09:54:32;1.23;;;0.63;;
34373;SDS011;20637;55.770;37.592;2022-09-03T09:57:12;0.40;;;0.40;;
34373;SDS011;20637;55.770;37.592;2022-09-03T09:59:42;0.50;;;0.47;;
34373;SDS011;20637;55.770;37.592;2022-09-03T10:02:10;0.68;;;0.60;;
34373;SDS011;20637;55.770;37.592;2022-09-03T10:04:39;1.30;;;0.90;;
34373;SDS011;20637;55.770;37.592;2022-09-03T10:12:32;0.70;;;0.43;;
34373;SDS011;20637;55.770;37.592;2022-09-03T10:15:02;0.80;;;0.50;;
34373;SDS011;20637;55.770;37.592;2022-09-03T10:23:25;1.00;;;0.40;;
34373;SDS011;20637;55.770;37.592;2022-09-03T10:28:21;2.00;;;0.52;;
34373;SDS011;20637;55.770;37.592;2022-09-03T10:33:39;0.52;;;0.50;;
34373;SDS011;20637;55.770;37.592;2022-09-03T10:36:17;1.40;;;0.40;;
34373;SDS011;20637;55.770;37.592;2022-09-03T10:39:15;1.00;;;0.60;;
34373;SDS011;20637;55.770;37.592;2022-09-03T10:44:46;1.17;;;0.68;;
34373;SDS011;20637;55.770;37.592;2022-09-03T10:50:08;1.33;;;0.88;;
34373;SDS011;20637;55.770;37.592;2022-09-03T10:58:18;0.85;;;0.70;;
34373;SDS011;20637;55.770;37.592;2022-09-03T11:00:53;0.50;;;0.40;;
34373;SDS011;20637;55.770;37.592;2022-09-03T11:03:34;0.93;;;0.50;;
34373;SDS011;20637;55.770;37.592;2022-09-03T11:06:14;1.45;;;0.95;;
34373;SDS011;20637;55.770;37.592;2022-09-03T11:08:51;1.80;;;0.50;;
34373;SDS011;20637;55.770;37.592;2022-09-03T11:11:34;0.57;;;0.38;;
34373;SDS011;20637;55.770;37.592;2022-09-03T11:14:09;0.70;;;0.50;;
34373;SDS011;20637;55.770;37.592;2022-09-03T11:16:46;1.30;;;0.30;;
34373;SDS011;20637;55.770;37.592;2022-09-03T11:19:17;2.72;;;0.50;;
34373;SDS011;20637;55.770;37.592;2022-09-03T11:21:51;1.35;;;1.08;;
34373;SDS011;20637;55.770;37.592;2022-09-03T11:24:22;0.77;;;0.50;;
34373;SDS011;20637;55.770;37.592;2022-09-03T11:32:23;1.33;;;0.50;;
34373;SDS011;20637;55.770;37.592;2022-09-03T11:34:56;0.73;;;0.57;;
34373;SDS011;20637;55.770;37.592;2022-09-03T11:37:26;2.45;;;0.60;;
34373;SDS011;20637;55.770;37.592;2022-09-03T11:42:40;1.75;;;0.85;;
34373;SDS011;20637;55.770;37.592;2022-09-03T11:46:00;0.60;;;0.40;;
34373;SDS011;20637;55.770;37.592;2022-09-03T11:47:56;1.98;;;0.43;;
34373;SDS011;20637;55.770;37.592;2022-09-03T11:50:27;0.90;;;0.50;;
34373;SDS011;20637;55.770;37.592;2022-09-03T11:53:08;1.35;;;0.95;;
34373;SDS011;20637;55.770;37.592;2022-09-03T11:55:50;0.60;;;0.57;;
34373;SDS011;20637;55.770;37.592;2022-09-03T11:58:25;1.15;;;0.40;;
34373;SDS011;20637;55.770;37.592;2022-09-03T12:01:12;0.85;;;0.50;;
34373;SDS011;20637;55.770;37.592;2022-09-03T12:19:57;1.05;;;0.55;;
34373;SDS011;20637;55.770;37.592;2022-09-03T12:22:25;3.83;;;1.05;;
34373;SDS011;20637;55.770;37.592;2022-09-03T12:25:08;2.35;;;0.60;;
34373;SDS011;20637;55.770;37.592;2022-09-03T12:27:36;0.95;;;0.80;;
34373;SDS011;20637;55.770;37.592;2022-09-03T12:30:03;1.85;;;0.70;;
34373;SDS011;20637;55.770;37.592;2022-09-03T12:32:31;2.42;;;0.70;;
34373;SDS011;20637;55.770;37.592;2022-09-03T12:37:47;2.72;;;0.80;;
34373;SDS011;20637;55.770;37.592;2022-09-03T12:40:26;1.17;;;0.60;;
34373;SDS011;20637;55.770;37.592;2022-09-03T12:42:53;1.92;;;0.60;;
34373;SDS011;20637;55.770;37.592;2022-09-03T12:45:23;1.80;;;0.63;;
34373;SDS011;20637;55.770;37.592;2022-09-03T12:50:18;1.67;;;0.95;;
34373;SDS011;20637;55.770;37.592;2022-09-03T12:52:56;1.20;;;0.70;;
34373;SDS011;20637;55.770;37.592;2022-09-03T13:00:35;1.13;;;0.65;;
34373;SDS011;20637;55.770;37.592;2022-09-03T13:03:06;0.80;;;0.60;;
34373;SDS011;20637;55.770;37.592;2022-09-03T13:05:42;2.95;;;0.50;;
34373;SDS011;20637;55.770;37.592;2022-09-03T13:10:55;3.38;;;0.75;;
34373;SDS011;20637;55.770;37.592;2022-09-03T13:13:32;2.28;;;0.60;;
34373;SDS011;20637;55.770;37.592;2022-09-03T13:30:20;1.05;;;0.57;;
34373;SDS011;20637;55.770;37.592;2022-09-03T13:46:58;1.92;;;0.70;;
34373;SDS011;20637;55.770;37.592;2022-09-03T13:52:44;2.07;;;0.57;;
34373;SDS011;20637;55.770;37.592;2022-09-03T13:55:24;2.72;;;0.50;;
34373;SDS011;20637;55.770;37.592;2022-09-03T13:58:10;1.33;;;0.80;;
34373;SDS011;20637;55.770;37.592;2022-09-03T14:00:53;0.90;;;0.30;;
34373;SDS011;20637;55.770;37.592;2022-09-03T14:03:42;2.47;;;0.40;;
34373;SDS011;20637;55.770;37.592;2022-09-03T14:06:17;1.33;;;0.40;;
34373;SDS011;20637;55.770;37.592;2022-09-03T14:17:35;2.72;;;0.63;;
34373;SDS011;20637;55.770;37.592;2022-09-03T14:20:11;2.30;;;0.60;;
34373;SDS011;20637;55.770;37.592;2022-09-03T14:22:59;2.00;;;0.60;;
34373;SDS011;20637;55.770;37.592;2022-09-03T14:25:52;2.50;;;0.65;;
34373;SDS011;20637;55.770;37.592;2022-09-03T14:28:35;1.58;;;0.98;;
34373;SDS011;20637;55.770;37.592;2022-09-03T14:31:28;1.42;;;0.60;;
34373;SDS011;20637;55.770;37.592;2022-09-03T14:42:12;2.05;;;0.60;;
34373;SDS011;20637;55.770;37.592;2022-09-03T14:47:35;1.52;;;0.70;;
34373;SDS011;20637;55.770;37.592;2022-09-03T15:01:31;3.58;;;0.90;;
34373;SDS011;20637;55.770;37.592;2022-09-03T15:13:09;3.03;;;1.98;;
34373;SDS011;20637;55.770;37.592;2022-09-03T15:15:21;2.10;;;1.23;;
34373;SDS011;20637;55.770;37.592;2022-09-03T15:26:59;0.75;;;0.60;;
34373;SDS011;20637;55.770;37.592;2022-09-03T15:32:17;0.75;;;0.47;;
34373;SDS011;20637;55.770;37.592;2022-09-03T15:37:38;4.00;;;1.30;;
34373;SDS011;20637;55.770;37.592;2022-09-03T15:40:22;4.88;;;0.98;;
34373;SDS011;20637;55.770;37.592;2022-09-03T15:43:02;3.45;;;0.82;;
34373;SDS011;20637;55.770;37.592;2022-09-03T15:48:20;5.18;;;3.10;;
34373;SDS011;20637;55.770;37.592;2022-09-03T15:50:52;4.05;;;1.52;;
34373;SDS011;20637;55.770;37.592;2022-09-03T15:56:26;0.75;;;0.70;;
34373;SDS011;20637;55.770;37.592;2022-09-03T15:59:06;3.00;;;1.00;;
34373;SDS011;20637;55.770;37.592;2022-09-03T16:01:44;2.60;;;0.80;;
34373;SDS011;20637;55.770;37.592;2022-09-03T16:10:14;3.80;;;3.17;;
34373;SDS011;20637;55.770;37.592;2022-09-03T16:13:04;4.72;;;1.65;;
34373;SDS011;20637;55.770;37.592;2022-09-03T16:15:47;1.75;;;1.50;;
34373;SDS011;20637;55.770;37.592;2022-09-03T16:18:23;4.50;;;1.80;;
34373;SDS011;20637;55.770;37.592;2022-09-03T16:20:53;5.32;;;1.85;;
34373;SDS011;20637;55.770;37.592;2022-09-03T16:23:25;3.15;;;1.60;;
34373;SDS011;20637;55.770;37.592;2022-09-03T16:25:59;1.73;;;1.30;;
34373;SDS011;20637;55.770;37.592;2022-09-03T16:28:32;2.05;;;0.90;;
34373;SDS011;20637;55.770;37.592;2022-09-03T16:48:35;3.67;;;1.10;;
34373;SDS011;20637;55.770;37.592;2022-09-03T16:51:16;3.42;;;0.90;;
34373;SDS011;20637;55.770;37.592;2022-09-03T16:59:35;1.83;;;1.20;;
34373;SDS011;20637;55.770;37.592;2022-09-03T17:07:59;2.13;;;1.15;;
34373;SDS011;20637;55.770;37.592;2022-09-03T17:10:53;1.52;;;1.25;;
34373;SDS011;20637;55.770;37.592;2022-09-03T17:16:30;1.77;;;1.08;;
34373;SDS011;20637;55.770;37.592;2022-09-03T17:27:50;4.45;;;2.08;;
34373;SDS011;20637;55.770;37.592;2022-09-03T17:30:41;3.42;;;1.65;;
34373;SDS011;20637;55.770;37.592;2022-09-03T17:46:49;4.78;;;2.50;;
34373;SDS011;20637;55.770;37.592;2022-09-03T17:49:45;3.13;;;2.35;;
34373;SDS011;20637;55.770;37.592;2022-09-03T17:58:07;3.67;;;1.85;;
34373;SDS011;20637;55.770;37.592;2022-09-03T18:11:38;2.25;;;1.55;;
34373;SDS011;20637;55.770;37.592;2022-09-03T18:16:32;5.25;;;2.13;;
34373;SDS011;20637;55.770;37.592;2022-09-03T18:22:25;2.85;;;2.35;;
34373;SDS011;20637;55.770;37.592;2022-09-03T18:25:24;2.60;;;1.42;;
34373;SDS011;20637;55.770;37.592;2022-09-03T18:28:11;2.33;;;1.77;;
34373;SDS011;20637;55.770;37.592;2022-09-03T18:30:59;4.55;;;3.03;;
34373;SDS011;20637;55.770;37.592;2022-09-03T18:33:43;3.75;;;2.20;;
34373;SDS011;20637;55.770;37.592;2022-09-03T18:36:27;7.13;;;2.97;;
34373;SDS011;20637;55.770;37.592;2022-09-03T18:39:24;8.40;;;2.55;;
34373;SDS011;20637;55.770;37.592;2022-09-03T18:55:08;2.58;;;1.75;;
34373;SDS011;20637;55.770;37.592;2022-09-03T19:01:12;6.07;;;2.92;;
34373;SDS011;20637;55.770;37.592;2022-09-03T19:07:01;3.25;;;2.50;;
34373;SDS011;20637;55.770;37.592;2022-09-03T19:10:13;6.53;;;2.50;;
34373;SDS011;20637;55.770;37.592;2022-09-03T19:21:38;2.80;;;1.50;;
34373;SDS011;20637;55.770;37.592;2022-09-03T19:24:29;4.72;;;3.03;;
34373;SDS011;20637;55.770;37.592;2022-09-03T19:27:35;5.72;;;2.95;;
34373;SDS011;20637;55.770;37.592;2022-09-03T19:30:51;3.95;;;1.55;;
34373;SDS011;20637;55.770;37.592;2022-09-03T19:42:57;1.83;;;0.90;;
34373;SDS011;20637;55.770;37.592;2022-09-03T19:49:07;1.55;;;0.90;;
34373;SDS011;20637;55.770;37.592;2022-09-03T19:52:20;1.55;;;1.00;;
34373;SDS011;20637;55.770;37.592;2022-09-03T19:55:00;1.77;;;0.90;;
34373;SDS011;20637;55.770;37.592;2022-09-03T19:57:46;1.85;;;1.00;;
34373;SDS011;20637;55.770;37.592;2022-09-03T20:00:36;2.85;;;0.90;;
34373;SDS011;20637;55.770;37.592;2022-09-03T20:03:20;3.40;;;0.90;;
34373;SDS011;20637;55.770;37.592;2022-09-03T20:06:05;2.30;;;0.93;;
34373;SDS011;20637;55.770;37.592;2022-09-03T20:08:51;3.70;;;1.13;;
34373;SDS011;20637;55.770;37.592;2022-09-03T20:11:38;3.97;;;0.82;;
34373;SDS011;20637;55.770;37.592;2022-09-03T20:14:08;2.05;;;1.40;;
34373;SDS011;20637;55.770;37.592;2022-09-03T20:16:40;3.47;;;1.30;;
34373;SDS011;20637;55.770;37.592;2022-09-03T20:27:12;4.55;;;1.02;;
34373;SDS011;20637;55.770;37.592;2022-09-03T20:54:29;1.98;;;0.70;;
34373;SDS011;20637;55.770;37.592;2022-09-03T21:26:50;1.92;;;1.10;;
34373;SDS011;20637;55.770;37.592;2022-09-03T21:29:25;3.10;;;1.35;;
34373;SDS011;20637;55.770;37.592;2022-09-03T21:34:36;2.88;;;1.35;;
34373;SDS011;20637;55.770;37.592;2022-09-03T21:37:05;4.20;;;1.58;;
34373;SDS011;20637;55.770;37.592;2022-09-03T21:39:39;3.08;;;1.70;;
34373;SDS011;20637;55.770;37.592;2022-09-03T21:42:50;2.47;;;1.45;;
34373;SDS011;20637;55.770;37.592;2022-09-03T21:47:44;1.95;;;1.50;;
34373;SDS011;20637;55.770;37.592;2022-09-03T21:52:54;2.28;;;2.00;;
34373;SDS011;20637;55.770;37.592;2022-09-03T21:55:32;2.88;;;2.28;;
34373;SDS011;20637;55.770;37.592;2022-09-03T22:01:01;2.53;;;2.10;;
34373;SDS011;20637;55.770;37.592;2022-09-03T22:03:32;2.70;;;1.90;;
34373;SDS011;20637;55.770;37.592;2022-09-03T22:06:00;3.13;;;2.55;;
34373;SDS011;20637;55.770;37.592;2022-09-03T22:08:51;2.95;;;2.40;;
34373;SDS011;20637;55.770;37.592;2022-09-03T22:11:54;3.53;;;2.72;;
34373;SDS011;20637;55.770;37.592;2022-09-03T22:14:28;3.60;;;2.22;;
34373;SDS011;20637;55.770;37.592;2022-09-03T22:17:05;2.33;;;2.03;;
34373;SDS011;20637;55.770;37.592;2022-09-03T22:19:39;2.90;;;2.10;;
34373;SDS011;20637;55.770;37.592;2022-09-03T22:22:07;3.22;;;2.40;;
34373;SDS011;20637;55.770;37.592;2022-09-03T22:30:33;2.30;;;2.00;;